Time;durP1;ratioP1;P1;durP2;ratioP2;P2;SDS_P1;SDS_P2;PMS_P1;PMS_P2;Temp;Humidity;BMP_temperature;BMP_pressure;BME280_temperature;BME280_humidity;BME280_pressure;Samples;Min_cycle;Max_cycle;Signal;HPM_P1;HPM_P2
2023/01/16 00:01:56;;;;;;;30.15;3.38;;;4.00;99.90;;;;;;5077715;28;20044;-76
2023/01/16 00:04:24;;;;;;;29.60;3.53;;;4.00;99.90;;;;;;5076497;28;20048;-74
2023/01/16 00:06:52;;;;;;;30.05;3.33;;;5.50;99.90;;;;;;5060647;28;20043;-76
2023/01/16 00:09:19;;;;;;;17.20;3.22;;;4.10;99.90;;;;;;5095542;28;20043;-74
2023/01/16 00:11:47;;;;;;;25.48;3.47;;;4.20;99.90;;;;;;5093850;28;20044;-73
2023/01/16 00:14:15;;;;;;;25.35;3.47;;;4.20;99.90;;;;;;5095034;28;20051;-76
2023/01/16 00:16:42;;;;;;;29.45;3.70;;;4.20;99.90;;;;;;5077398;28;20048;-77
2023/01/16 00:19:10;;;;;;;22.65;3.35;;;4.20;99.90;;;;;;5075988;28;20044;-76
2023/01/16 00:21:37;;;;;;;32.40;3.05;;;4.20;99.90;;;;;;5077109;28;20423;-74
2023/01/16 00:24:08;;;;;;;23.48;3.00;;;5.00;99.90;;;;;;5093568;28;20457;-75
2023/01/16 00:26:35;;;;;;;28.15;3.45;;;4.30;99.90;;;;;;5060769;28;20067;-76
2023/01/16 00:29:04;;;;;;;22.20;3.22;;;4.30;99.90;;;;;;5077306;28;20063;-74
2023/01/16 00:31:31;;;;;;;16.35;3.15;;;4.30;99.90;;;;;;5075831;28;20043;-73
2023/01/16 00:33:59;;;;;;;23.25;3.70;;;4.30;99.90;;;;;;5076008;28;20496;-75
2023/01/16 00:36:26;;;;;;;30.85;3.35;;;5.10;99.90;;;;;;5060946;28;20052;-74
2023/01/16 00:38:55;;;;;;;19.40;3.40;;;4.50;99.90;;;;;;5093727;28;20047;-76
2023/01/16 00:41:23;;;;;;;27.75;3.10;;;4.40;99.90;;;;;;5077171;28;20043;-75
2023/01/16 00:43:51;;;;;;;22.00;3.38;;;4.40;99.90;;;;;;5077217;28;20051;-74
2023/01/16 00:46:19;;;;;;;33.28;3.05;;;4.40;99.90;;;;;;5075771;28;20380;-77
2023/01/16 00:48:46;;;;;;;30.65;3.55;;;5.30;99.90;;;;;;5077381;28;20055;-75
2023/01/16 00:51:14;;;;;;;25.98;2.95;;;5.10;99.90;;;;;;5093917;28;20046;-73
2023/01/16 00:53:41;;;;;;;24.95;3.33;;;4.50;99.90;;;;;;5094817;28;20472;-76
2023/01/16 00:56:09;;;;;;;21.45;3.08;;;4.50;99.90;;;;;;5094655;28;20619;-75
2023/01/16 00:58:36;;;;;;;29.50;3.35;;;4.50;99.90;;;;;;5075529;28;20055;-76
2023/01/16 01:01:04;;;;;;;26.75;3.13;;;4.60;99.90;;;;;;5094418;28;20044;-76
2023/01/16 01:03:32;;;;;;;41.42;3.97;;;5.60;99.90;;;;;;5094578;28;20040;-73
2023/01/16 01:06:08;;;;;;;29.83;3.35;;;4.70;99.90;;;;;;5093325;28;20048;-77
2023/01/16 01:08:36;;;;;;;25.80;3.13;;;4.70;99.90;;;;;;5076616;28;20063;-73
2023/01/16 01:11:12;;;;;;;27.15;3.20;;;4.70;99.90;;;;;;5058749;28;20048;-73
2023/01/16 01:13:40;;;;;;;25.27;3.38;;;4.70;99.90;;;;;;5094985;28;20476;-73
2023/01/16 01:16:08;;;;;;;20.33;3.20;;;4.70;99.90;;;;;;5094299;28;20512;-75
2023/01/16 01:18:37;;;;;;;26.48;3.10;;;4.80;99.90;;;;;;5075810;28;20040;-77
2023/01/16 01:21:04;;;;;;;28.30;3.38;;;4.80;99.90;;;;;;5094221;28;20472;-74
2023/01/16 01:23:32;;;;;;;34.83;4.20;;;4.80;99.90;;;;;;5094314;28;20040;-75
2023/01/16 01:26:08;;;;;;;30.35;3.70;;;4.80;99.90;;;;;;5075241;28;20464;-75
2023/01/16 01:28:36;;;;;;;20.50;3.65;;;4.90;99.90;;;;;;5094756;28;20495;-74
2023/01/16 01:31:06;;;;;;;24.95;4.03;;;4.80;99.90;;;;;;5075513;28;20368;-75
2023/01/16 01:33:34;;;;;;;26.02;3.38;;;4.80;99.90;;;;;;5094370;28;20389;-75
2023/01/16 01:36:03;;;;;;;24.52;3.30;;;4.80;99.90;;;;;;5076353;28;20040;-76
2023/01/16 01:38:30;;;;;;;30.05;4.10;;;4.70;99.90;;;;;;5092919;28;20063;-73
2023/01/16 01:40:58;;;;;;;33.33;4.00;;;4.70;99.90;;;;;;5076489;28;20055;-73
2023/01/16 01:43:47;;;;;;;27.95;4.07;;;4.70;99.90;;;;;;5094320;28;20047;-74
2023/01/16 01:46:45;;;;;;;25.00;3.58;;;4.70;99.90;;;;;;5078066;28;20055;-75
2023/01/16 01:49:25;;;;;;;28.70;4.25;;;4.70;99.90;;;;;;5063689;28;20040;-74
2023/01/16 01:51:56;;;;;;;22.67;3.58;;;4.60;99.90;;;;;;5096558;28;20047;-77
2023/01/16 01:54:32;;;;;;;32.90;4.25;;;4.60;99.90;;;;;;5097813;28;20040;-73
2023/01/16 01:57:06;;;;;;;38.15;4.72;;;4.60;99.90;;;;;;5097541;28;20052;-74
2023/01/16 01:59:40;;;;;;;27.77;3.88;;;4.70;99.90;;;;;;5096043;28;20384;-73
2023/01/16 02:02:13;;;;;;;28.10;4.18;;;4.60;99.90;;;;;;5097446;28;20048;-74
2023/01/16 02:04:43;;;;;;;27.48;4.10;;;4.60;99.90;;;;;;5096221;28;20044;-74
2023/01/16 02:07:16;;;;;;;31.85;4.00;;;4.60;99.90;;;;;;5079424;28;20051;-75
2023/01/16 02:09:43;;;;;;;25.83;3.65;;;4.60;99.90;;;;;;5079525;28;20048;-76
2023/01/16 02:12:14;;;;;;;25.50;4.13;;;4.60;99.90;;;;;;5095914;28;20048;-76
2023/01/16 02:14:44;;;;;;;23.10;3.90;;;4.60;99.90;;;;;;5097454;28;20052;-77
2023/01/16 02:20:23;;;;;;;26.75;3.25;;;4.60;99.90;;;;;;5097038;28;20361;-76
2023/01/16 02:23:05;;;;;;;18.77;2.33;;;4.60;99.90;;;;;;5097358;28;20058;-74
2023/01/16 02:26:03;;;;;;;13.70;2.22;;;4.60;99.90;;;;;;5078150;28;20040;-76
2023/01/16 02:28:52;;;;;;;15.30;1.70;;;4.60;99.90;;;;;;5097177;28;20047;-72
2023/01/16 02:31:34;;;;;;;6.10;0.90;;;4.60;99.90;;;;;;5078377;28;20075;-76
2023/01/16 02:34:27;;;;;;;3.45;0.73;;;4.60;99.90;;;;;;5079357;28;20476;-73
2023/01/16 02:37:33;;;;;;;6.90;1.13;;;4.60;99.90;;;;;;5079105;28;20480;-75
2023/01/16 02:40:09;;;;;;;8.63;0.90;;;4.50;99.90;;;;;;5025276;28;20418;-76
2023/01/16 02:42:58;;;;;;;9.70;0.73;;;4.60;99.90;;;;;;5079158;28;20048;-77
2023/01/16 02:45:45;;;;;;;5.68;0.65;;;4.50;99.90;;;;;;5078011;28;20476;-73
2023/01/16 02:48:32;;;;;;;4.05;0.75;;;4.50;99.90;;;;;;5096391;28;20051;-75
2023/01/16 02:51:15;;;;;;;4.50;0.80;;;4.40;99.90;;;;;;5077890;28;20055;-73
2023/01/16 02:53:42;;;;;;;4.88;0.93;;;4.40;99.90;;;;;;5096760;28;20055;-75
2023/01/16 02:56:14;;;;;;;1.95;0.47;;;4.40;99.90;;;;;;5095644;28;20044;-75
2023/01/16 02:58:44;;;;;;;3.20;0.40;;;4.40;99.90;;;;;;5095212;28;20036;-74
2023/01/16 03:01:13;;;;;;;5.05;0.45;;;4.30;99.90;;;;;;5096525;28;20051;-75
2023/01/16 03:04:02;;;;;;;3.22;0.30;;;4.30;99.90;;;;;;5096024;28;20052;-74
2023/01/16 03:06:56;;;;;;;1.02;0.20;;;4.20;99.90;;;;;;5096578;28;20464;-75
2023/01/16 03:09:23;;;;;;;1.70;0.30;;;4.10;99.90;;;;;;5096212;28;20048;-74
2023/01/16 03:12:12;;;;;;;2.78;0.20;;;4.10;99.90;;;;;;5077234;28;20043;-72
2023/01/16 03:15:00;;;;;;;1.30;0.08;;;4.00;99.90;;;;;;5095907;28;20055;-74
2023/01/16 03:17:42;;;;;;;0.70;0.10;;;4.00;99.90;;;;;;5077432;28;20048;-76
2023/01/16 03:20:27;;;;;;;1.77;0.20;;;3.90;99.90;;;;;;5095830;28;20408;-74
2023/01/16 03:23:14;;;;;;;0.63;0.10;;;3.80;99.90;;;;;;5095777;28;20040;-75
2023/01/16 03:25:54;;;;;;;1.15;0.10;;;3.70;99.90;;;;;;5077207;28;20055;-73
2023/01/16 03:28:52;;;;;;;0.10;0.10;;;3.70;99.90;;;;;;5095854;28;20039;-76
2023/01/16 03:31:35;;;;;;;3.53;0.08;;;3.60;99.90;;;;;;5094905;28;20070;-73
2023/01/16 03:34:14;;;;;;;0.75;0.08;;;3.60;99.90;;;;;;5095796;28;20384;-75
2023/01/16 03:36:52;;;;;;;0.30;0.10;;;3.50;99.90;;;;;;5077803;28;20047;-73
2023/01/16 03:39:28;;;;;;;0.82;0.13;;;3.50;99.90;;;;;;5094294;28;20059;-73
2023/01/16 03:42:03;;;;;;;0.65;0.10;;;3.40;99.90;;;;;;5095762;28;20055;-73
2023/01/16 03:44:37;;;;;;;1.48;0.10;;;3.40;99.90;;;;;;5094374;28;20067;-73
2023/01/16 03:47:15;;;;;;;8.15;0.40;;;3.50;99.90;;;;;;5095519;28;20040;-72
2023/01/16 03:49:48;;;;;;;1.45;0.10;;;3.40;99.90;;;;;;5095214;28;20044;-76
2023/01/16 03:52:19;;;;;;;1.77;0.10;;;3.30;99.90;;;;;;5094291;28;20472;-74
2023/01/16 03:54:59;;;;;;;1.20;0.17;;;3.30;99.90;;;;;;5095220;28;20052;-76
2023/01/16 03:57:32;;;;;;;0.35;0.10;;;3.30;99.90;;;;;;5076750;28;20047;-73
2023/01/16 04:00:01;;;;;;;0.52;0.00;;;3.20;99.90;;;;;;5094967;28;20044;-75
2023/01/16 04:02:48;;;;;;;0.00;0.00;;;3.10;99.90;;;;;;5095502;28;20036;-74
2023/01/16 04:05:24;;;;;;;0.00;0.00;;;3.10;99.90;;;;;;5094233;28;20477;-72
2023/01/16 04:08:10;;;;;;;0.00;0.00;;;3.00;99.90;;;;;;5077292;28;20056;-74
2023/01/16 04:10:41;;;;;;;0.00;0.00;;;2.90;99.90;;;;;;5093809;28;20052;-75
2023/01/16 04:13:12;;;;;;;2.05;1.08;;;2.90;99.90;;;;;;5095433;28;20507;-75
2023/01/16 04:15:46;;;;;;;0.00;0.00;;;2.80;99.90;;;;;;5095195;28;20105;-72
2023/01/16 04:18:14;;;;;;;0.00;0.00;;;2.80;99.90;;;;;;5093844;28;20054;-73
2023/01/16 04:20:45;;;;;;;0.00;0.00;;;5.00;99.90;;;;;;5077203;28;20048;-76
2023/01/16 04:23:13;;;;;;;0.00;0.00;;;2.70;99.90;;;;;;5094953;28;20139;-74
2023/01/16 04:25:41;;;;;;;0.00;0.00;;;2.70;99.90;;;;;;5059671;28;20040;-72
2023/01/16 04:28:09;;;;;;;0.00;0.00;;;2.60;99.90;;;;;;5077542;28;20373;-72
2023/01/16 04:30:36;;;;;;;0.00;0.00;;;2.60;99.90;;;;;;5076157;28;20492;-72
2023/01/16 04:33:05;;;;;;;0.00;0.00;;;2.50;99.90;;;;;;5094767;28;20048;-73
2023/01/16 04:35:33;;;;;;;0.00;0.00;;;2.50;99.90;;;;;;5094706;28;20051;-73
2023/01/16 04:38:01;;;;;;;0.00;0.00;;;2.50;99.90;;;;;;5093764;28;20055;-76
2023/01/16 04:40:28;;;;;;;0.00;0.00;;;2.40;99.90;;;;;;5094938;28;20048;-71
2023/01/16 04:42:56;;;;;;;0.00;0.00;;;2.40;99.90;;;;;;5094726;28;20040;-76
2023/01/16 04:45:23;;;;;;;0.00;0.00;;;2.40;99.90;;;;;;5076027;28;20048;-73
2023/01/16 04:47:51;;;;;;;0.00;0.00;;;2.30;99.90;;;;;;5094560;28;20044;-72
2023/01/16 04:50:19;;;;;;;0.00;0.00;;;2.30;99.90;;;;;;5077100;28;20055;-73
2023/01/16 04:52:47;;;;;;;0.00;0.00;;;2.20;99.90;;;;;;5093410;28;20044;-70
2023/01/16 04:55:15;;;;;;;0.00;0.00;;;2.20;99.90;;;;;;5094899;28;20040;-76
2023/01/16 04:57:42;;;;;;;0.00;0.00;;;2.10;99.90;;;;;;5093502;28;20048;-73
2023/01/16 05:00:11;;;;;;;0.00;0.00;;;2.10;99.90;;;;;;5076797;28;20044;-73
2023/01/16 05:02:38;;;;;;;0.00;0.00;;;2.10;99.90;;;;;;5094600;28;20063;-73
2023/01/16 05:05:06;;;;;;;0.00;0.00;;;2.00;99.90;;;;;;5093563;28;20036;-74
2023/01/16 05:07:34;;;;;;;0.00;0.00;;;2.00;99.90;;;;;;5094280;28;20495;-74
2023/01/16 05:10:02;;;;;;;0.00;0.00;;;1.90;99.90;;;;;;5059539;28;20514;-73
2023/01/16 05:12:30;;;;;;;0.00;0.00;;;1.90;99.90;;;;;;5075816;28;20368;-72
2023/01/16 05:14:57;;;;;;;0.00;0.00;;;1.90;99.90;;;;;;5094207;28;20491;-71
2023/01/16 05:17:26;;;;;;;0.00;0.00;;;1.80;99.90;;;;;;5075540;28;20036;-72
2023/01/16 05:19:53;;;;;;;0.00;0.00;;;1.80;99.90;;;;;;5095240;28;20040;-75
2023/01/16 05:22:21;;;;;;;0.00;0.00;;;1.80;99.90;;;;;;5080479;28;20048;-75
2023/01/16 05:24:49;;;;;;;0.00;0.00;;;1.70;99.90;;;;;;5096980;28;20491;-72
2023/01/16 05:27:16;;;;;;;0.00;0.00;;;1.60;99.90;;;;;;5098055;28;20473;-74
2023/01/16 05:29:44;;;;;;;0.00;0.00;;;1.60;99.90;;;;;;5080475;28;20040;-75
2023/01/16 05:32:11;;;;;;;0.00;0.00;;;1.60;99.90;;;;;;5096826;28;20052;-74
2023/01/16 05:34:39;;;;;;;0.00;0.00;;;1.60;99.90;;;;;;5080193;28;20368;-74
2023/01/16 05:37:06;;;;;;;0.00;0.00;;;1.50;99.90;;;;;;5098000;28;20510;-75
2023/01/16 05:39:34;;;;;;;0.00;0.00;;;1.50;99.90;;;;;;5096685;28;20047;-75
2023/01/16 05:42:01;;;;;;;0.00;0.00;;;1.40;99.90;;;;;;5080053;28;20051;-74
2023/01/16 05:44:29;;;;;;;0.00;0.00;;;1.40;99.90;;;;;;5096578;28;20047;-73
2023/01/16 05:46:56;;;;;;;0.00;0.00;;;1.40;99.90;;;;;;5080411;28;20055;-73
2023/01/16 05:49:24;;;;;;;0.00;0.00;;;1.40;99.90;;;;;;5097882;28;20368;-75
2023/01/16 05:51:51;;;;;;;0.00;0.00;;;1.40;99.90;;;;;;5096588;28;20365;-72
2023/01/16 05:54:22;;;;;;;0.00;0.00;;;1.40;99.90;;;;;;5097592;28;20473;-75
2023/01/16 05:56:49;;;;;;;0.00;0.00;;;1.30;99.90;;;;;;5097474;28;20047;-72
2023/01/16 05:59:17;;;;;;;0.00;0.00;;;1.40;99.90;;;;;;5078797;28;20500;-74
2023/01/16 06:01:44;;;;;;;0.00;0.00;;;1.40;99.90;;;;;;5097368;28;20118;-73
2023/01/16 06:04:12;;;;;;;0.00;0.00;;;1.40;99.90;;;;;;5078641;28;20048;-72
2023/01/16 06:06:39;;;;;;;0.00;0.00;;;1.50;99.90;;;;;;5079708;28;20044;-74
2023/01/16 06:09:07;;;;;;;0.00;0.00;;;1.50;99.90;;;;;;5097305;28;20044;-72
2023/01/16 06:11:34;;;;;;;0.00;0.00;;;1.50;99.90;;;;;;5096039;28;20055;-76
2023/01/16 06:14:04;;;;;;;0.00;0.00;;;1.50;99.90;;;;;;5097685;28;20048;-73
2023/01/16 06:16:32;;;;;;;0.00;0.00;;;1.50;99.90;;;;;;5097095;28;20369;-74
2023/01/16 06:19:00;;;;;;;0.00;0.00;;;1.60;99.90;;;;;;5096149;28;20048;-74
2023/01/16 06:21:28;;;;;;;0.00;0.00;;;1.60;99.90;;;;;;5097118;28;20044;-72
2023/01/16 06:23:55;;;;;;;0.00;0.00;;;1.70;99.90;;;;;;5096232;28;20055;-74
2023/01/16 06:26:22;;;;;;;0.00;0.00;;;2.30;99.90;;;;;;5096889;28;20047;-74
2023/01/16 06:28:50;;;;;;;0.00;0.00;;;1.80;99.90;;;;;;5079618;28;20047;-73
2023/01/16 06:31:17;;;;;;;0.00;0.00;;;1.90;99.90;;;;;;5094437;28;20051;-75
2023/01/16 06:33:45;;;;;;;0.00;0.00;;;2.00;99.90;;;;;;5096944;28;20052;-74
2023/01/16 06:36:13;;;;;;;0.00;0.00;;;2.10;99.90;;;;;;5096638;28;20052;-75
2023/01/16 06:38:41;;;;;;;0.00;0.00;;;2.10;99.90;;;;;;5078260;28;20126;-75
2023/01/16 06:41:10;;;;;;;0.20;0.13;;;2.20;99.90;;;;;;5096521;28;20040;-73
2023/01/16 06:43:38;;;;;;;0.00;0.00;;;0.90;99.90;;;;;;5096011;28;20468;-74
2023/01/16 06:46:05;;;;;;;0.00;0.00;;;2.30;99.90;;;;;;5095499;28;20051;-74
2023/01/16 06:48:34;;;;;;;0.00;0.00;;;2.30;99.90;;;;;;5079028;28;20059;-74
2023/01/16 06:51:02;;;;;;;0.00;0.00;;;2.70;99.90;;;;;;5095291;28;20519;-76
2023/01/16 06:53:29;;;;;;;0.00;0.00;;;2.40;99.90;;;;;;5096367;28;20048;-75
2023/01/16 06:55:57;;;;;;;0.00;0.00;;;2.40;99.90;;;;;;5096343;28;20472;-74
2023/01/16 06:58:24;;;;;;;0.00;0.00;;;2.50;99.90;;;;;;5077653;28;20044;-75
2023/01/16 07:00:52;;;;;;;0.00;0.00;;;2.50;99.90;;;;;;5078547;28;20144;-73
2023/01/16 07:03:21;;;;;;;0.00;0.00;;;2.50;99.90;;;;;;5096098;28;20055;-75
2023/01/16 07:05:48;;;;;;;0.00;0.00;;;2.50;99.90;;;;;;5077527;28;20052;-72
2023/01/16 07:08:16;;;;;;;0.00;0.00;;;2.50;99.90;;;;;;5049842;28;20049;-74
2023/01/16 07:10:44;;;;;;;0.00;0.00;;;2.50;99.90;;;;;;5074782;28;20047;-74
2023/01/16 07:13:12;;;;;;;0.00;0.00;;;2.50;99.90;;;;;;5058277;28;20047;-76
2023/01/16 07:24:08;;;;;;;0.00;0.00;;;2.70;99.90;;;;;;5074456;28;20045;-76
2023/01/16 07:26:39;;;;;;;0.00;0.00;;;2.70;99.90;;;;;;5076115;28;20048;-72
2023/01/16 07:29:07;;;;;;;0.00;0.00;;;2.70;99.90;;;;;;5075428;28;20044;-72
2023/01/16 07:31:35;;;;;;;0.00;0.00;;;2.80;99.90;;;;;;5074274;28;20053;-72
2023/01/16 07:34:02;;;;;;;;;;;2.80;99.90;;;;;;5058137;28;20063;-72
2023/01/16 07:36:30;;;;;;;0.00;0.00;;;2.90;99.90;;;;;;5075205;28;19921;-73
2023/01/16 07:38:58;;;;;;;0.00;0.00;;;2.90;99.90;;;;;;5074205;28;20055;-74
2023/01/16 07:41:25;;;;;;;0.00;0.00;;;2.90;99.90;;;;;;5058167;28;20041;-72
2023/01/16 07:43:53;;;;;;;0.00;0.00;;;3.00;99.90;;;;;;5057843;28;20044;-75
2023/01/16 07:46:20;;;;;;;0.00;0.00;;;3.00;99.90;;;;;;5074615;28;20056;-73
2023/01/16 07:48:47;;;;;;;0.00;0.00;;;3.00;99.90;;;;;;5057757;28;20041;-74
2023/01/16 07:51:15;;;;;;;0.00;0.00;;;3.10;99.90;;;;;;5056682;28;20063;-74
2023/01/16 07:53:42;;;;;;;0.00;0.00;;;3.10;99.90;;;;;;5075412;28;20048;-72
2023/01/16 07:56:10;;;;;;;0.00;0.00;;;3.20;99.90;;;;;;5075032;28;20063;-74
2023/01/16 07:58:41;;;;;;;0.00;0.00;;;3.20;99.90;;;;;;5074201;28;20353;-76
2023/01/16 08:01:10;;;;;;;0.00;0.00;;;3.20;99.90;;;;;;5057626;28;20055;-74
2023/01/16 08:03:38;;;;;;;0.00;0.00;;;3.30;99.90;;;;;;5075072;28;20377;-74
2023/01/16 08:06:06;;;;;;;0.00;0.00;;;3.60;99.90;;;;;;5055971;28;20048;-74
2023/01/16 08:08:34;;;;;;;0.00;0.00;;;3.30;99.90;;;;;;5089375;28;20059;-73
2023/01/16 08:11:35;;;;;;;0.00;0.00;;;3.30;99.90;;;;;;5104038;28;20122;-74
2023/01/16 08:13:51;;;;;;;0.00;0.00;;;3.50;99.90;;;;;;5114715;28;20488;-73
2023/01/16 08:16:19;;;;;;;0.00;0.00;;;3.40;99.90;;;;;;5097625;28;20047;-70
2023/01/16 08:18:48;;;;;;;0.00;0.00;;;3.40;99.90;;;;;;5096846;28;20058;-71
2023/01/16 08:21:16;;;;;;;0.00;0.00;;;3.40;99.90;;;;;;5097749;28;20464;-75
2023/01/16 08:23:44;;;;;;;0.00;0.00;;;3.40;99.90;;;;;;5115103;28;20062;-73
2023/01/16 08:26:12;;;;;;;0.00;0.00;;;3.70;99.90;;;;;;5114419;28;20044;-72
2023/01/16 08:28:40;;;;;;;0.00;0.00;;;3.50;99.90;;;;;;5115145;28;20044;-72
2023/01/16 08:31:12;;;;;;;0.00;0.00;;;3.40;99.90;;;;;;5096665;28;20052;-71
2023/01/16 08:33:42;;;;;;;0.00;0.00;;;3.50;99.90;;;;;;5114366;28;20044;-74
2023/01/16 08:36:11;;;;;;;0.00;0.00;;;3.80;99.90;;;;;;5080329;28;20498;-75
2023/01/16 08:38:39;;;;;;;0.00;0.00;;;3.50;99.90;;;;;;5113780;28;20043;-74
2023/01/16 08:51:21;;;;;;;0.00;0.00;;;3.50;99.90;;;;;;5114731;28;20498;-75
2023/01/16 08:52:18;;;;;;;0.00;0.00;;;3.70;99.90;;;;;;5113524;28;20040;-73
2023/01/16 08:54:46;;;;;;;0.00;0.00;;;3.60;99.90;;;;;;5098021;28;20040;-71
2023/01/16 08:57:13;;;;;;;0.00;0.00;;;3.60;99.90;;;;;;5101234;28;20042;-74
2023/01/16 08:59:41;;;;;;;0.00;0.00;;;3.60;99.90;;;;;;5118545;28;20460;-71
2023/01/16 09:02:10;;;;;;;0.00;0.00;;;3.60;99.90;;;;;;5118201;28;20042;-73
2023/01/16 09:04:38;;;;;;;0.00;0.00;;;3.60;99.90;;;;;;5100028;28;20058;-72
2023/01/16 09:07:06;;;;;;;0.00;0.00;;;3.60;99.90;;;;;;5118040;27;20043;-73
2023/01/16 09:09:34;;;;;;;0.00;0.00;;;3.60;99.90;;;;;;5119300;28;20048;-70
2023/01/16 09:14:48;;;;;;;0.00;0.00;;;3.80;99.90;;;;;;5118719;28;20047;-71
2023/01/16 09:17:15;;;;;;;0.00;0.00;;;3.70;99.90;;;;;;5100710;28;20055;-72
2023/01/16 09:19:43;;;;;;;0.00;0.00;;;3.70;99.90;;;;;;5118686;28;20202;-74
2023/01/16 09:22:10;;;;;;;0.00;0.00;;;3.70;99.90;;;;;;5118297;28;20054;-73
2023/01/16 09:24:39;;;;;;;0.00;0.00;;;3.70;99.90;;;;;;5099978;28;20046;-70
2023/01/16 09:27:06;;;;;;;0.10;0.10;;;3.60;99.90;;;;;;5118657;28;20044;-75
2023/01/16 09:29:33;;;;;;;0.00;0.00;;;3.60;99.90;;;;;;5101168;28;20042;-71
2023/01/16 09:32:07;;;;;;;0.00;0.00;;;3.60;99.90;;;;;;5083196;28;20035;-72
2023/01/16 09:34:36;;;;;;;0.00;0.00;;;3.70;99.90;;;;;;5119100;28;20040;-71
2023/01/16 09:37:05;;;;;;;0.00;0.00;;;3.60;99.90;;;;;;5112730;28;20044;-76
2023/01/16 09:39:32;;;;;;;0.00;0.00;;;3.60;99.90;;;;;;5075181;28;20376;-73
2023/01/16 09:45:16;;;;;;;0.15;0.15;;;3.70;99.90;;;;;;5097842;28;20048;-77
2023/01/16 09:47:50;;;;;;;0.00;0.00;;;3.70;99.90;;;;;;5117832;28;20047;-75
2023/01/16 09:50:32;;;;;;;0.00;0.00;;;3.70;99.90;;;;;;5083423;28;20048;-75
2023/01/16 09:58:46;;;;;;;0.00;0.00;;;3.70;99.90;;;;;;5098707;28;20059;-74
2023/01/16 10:01:25;;;;;;;0.00;0.00;;;3.70;99.90;;;;;;5100029;28;20039;-75
2023/01/16 10:04:03;;;;;;;0.00;0.00;;;3.70;99.90;;;;;;5117523;28;20035;-75
2023/01/16 10:07:01;;;;;;;0.00;0.00;;;5.90;99.90;;;;;;5117401;28;20391;-75
2023/01/16 10:10:09;;;;;;;0.10;0.08;;;3.70;99.90;;;;;;5074912;28;20063;-76
2023/01/16 10:12:39;;;;;;;0.00;0.00;;;3.70;99.90;;;;;;5116295;28;20051;-75
2023/01/16 10:15:22;;;;;;;0.00;0.00;;;3.80;99.90;;;;;;5099573;28;20047;-74
2023/01/16 10:18:01;;;;;;;0.00;0.00;;;3.80;99.90;;;;;;5098859;28;20472;-75
2023/01/16 10:20:55;;;;;;;0.45;0.43;;;3.80;99.90;;;;;;5099468;28;20047;-78
2023/01/16 10:23:47;;;;;;;0.00;0.00;;;3.80;99.90;;;;;;5099426;28;20039;-75
2023/01/16 10:26:30;;;;;;;0.00;0.00;;;3.80;99.90;;;;;;5116322;28;20048;-76
2023/01/16 10:29:28;;;;;;;0.00;0.00;;;3.80;99.90;;;;;;5117074;28;20055;-75
2023/01/16 10:32:03;;;;;;;0.00;0.00;;;3.80;99.90;;;;;;5116101;28;20380;-76
2023/01/16 10:34:33;;;;;;;0.00;0.00;;;3.90;99.90;;;;;;5099092;28;20043;-74
2023/01/16 10:37:02;;;;;;;0.10;0.10;;;3.90;99.90;;;;;;5117040;28;20054;-73
2023/01/16 10:39:35;;;;;;;0.17;0.17;;;3.90;99.90;;;;;;5098217;28;20047;-77
2023/01/16 10:50:48;;;;;;;0.00;0.00;;;4.10;99.90;;;;;;5115776;28;20054;-76
2023/01/16 10:53:16;;;;;;;0.00;0.00;;;4.80;99.90;;;;;;5116698;28;20051;-74
2023/01/16 10:55:48;;;;;;;0.00;0.00;;;4.20;99.90;;;;;;5098621;28;20058;-73
2023/01/16 10:58:29;;;;;;;0.00;0.00;;;5.50;99.90;;;;;;5115834;28;20352;-75
2023/01/16 11:01:04;;;;;;;0.00;0.00;;;4.20;99.90;;;;;;5116448;28;20371;-73
2023/01/16 11:03:37;;;;;;;0.00;0.00;;;4.10;99.90;;;;;;5098781;28;20039;-77
2023/01/16 11:06:09;;;;;;;0.00;0.00;;;4.10;99.90;;;;;;5115515;28;20043;-75
2023/01/16 11:08:38;;;;;;;0.00;0.00;;;4.10;99.90;;;;;;5098316;28;20484;-75
2023/01/16 11:18:27;;;;;;;0.00;0.00;;;4.20;99.90;;;;;;5115175;28;20043;-74
2023/01/16 11:19:27;;;;;;;0.00;0.00;;;4.20;99.90;;;;;;5114776;28;20051;-77
2023/01/16 11:22:06;;;;;;;0.00;0.00;;;4.20;99.90;;;;;;5081337;28;20051;-75
2023/01/16 11:24:39;;;;;;;0.00;0.00;;;4.90;99.90;;;;;;5097553;28;20046;-74
2023/01/16 11:27:16;;;;;;;7.22;2.78;;;4.30;99.90;;;;;;5097877;28;20048;-76
2023/01/16 11:29:44;;;;;;;0.00;0.00;;;4.20;99.90;;;;;;5116262;28;20482;-75
2023/01/16 11:32:14;;;;;;;0.00;0.00;;;4.30;99.90;;;;;;5114813;28;20047;-78
2023/01/16 11:34:47;;;;;;;0.08;0.08;;;4.20;99.90;;;;;;5116203;28;20411;-75
2023/01/16 11:37:16;;;;;;;0.00;0.00;;;4.30;99.90;;;;;;5116275;28;20051;-77
2023/01/16 11:39:50;;;;;;;0.20;0.20;;;4.30;99.90;;;;;;5097985;28;20047;-75
2023/01/16 11:48:22;;;;;;;0.00;0.00;;;4.30;99.90;;;;;;5115804;28;20059;-75
2023/01/16 11:50:57;;;;;;;0.00;0.00;;;4.30;99.90;;;;;;5096863;28;20055;-77
2023/01/16 11:53:31;;;;;;;0.00;0.00;;;4.30;99.90;;;;;;5081512;28;20058;-72
2023/01/16 11:56:36;;;;;;;0.00;0.00;;;4.40;99.90;;;;;;5115586;28;20050;-77
2023/01/16 11:59:23;;;;;;;0.00;0.00;;;4.40;99.90;;;;;;5114375;28;20039;-73
2023/01/16 12:08:17;;;;;;;0.00;0.00;;;4.60;99.90;;;;;;5115111;28;20483;-76
2023/01/16 12:10:54;;;;;;;0.00;0.00;;;4.60;99.90;;;;;;5114397;28;20040;-74
2023/01/16 12:16:56;;;;;;;0.47;0.47;;;4.70;99.90;;;;;;5115674;28;20047;-77
2023/01/16 12:19:27;;;;;;;0.00;0.00;;;4.70;99.90;;;;;;5095721;28;20047;-76
2023/01/16 12:22:39;;;;;;;0.00;0.00;;;4.80;99.90;;;;;;5097196;28;20044;-71
2023/01/16 12:25:40;;;;;;;0.05;0.05;;;4.70;99.90;;;;;;5071168;28;20475;-77
2023/01/16 12:28:19;;;;;;;0.00;0.00;;;4.70;99.90;;;;;;5115018;28;20498;-76
2023/01/16 12:31:03;;;;;;;0.00;0.00;;;4.80;99.90;;;;;;5096006;28;20479;-75
2023/01/16 12:34:03;;;;;;;0.00;0.00;;;4.80;99.90;;;;;;5114665;28;20460;-80
2023/01/16 12:36:36;;;;;;;0.00;0.00;;;4.70;99.90;;;;;;5114754;28;20040;-79
2023/01/16 12:39:37;;;;;;;0.00;0.00;;;4.80;99.90;;;;;;5095934;28;20047;-80
2023/01/16 12:45:34;;;;;;;0.38;0.38;;;4.80;99.90;;;;;;5113505;28;20503;-77
2023/01/16 12:48:39;;;;;;;2.55;0.80;;;4.80;99.90;;;;;;5114370;28;20047;-76
2023/01/16 12:51:22;;;;;;;0.00;0.00;;;4.80;99.90;;;;;;5079086;28;20040;-75
2023/01/16 12:54:24;;;;;;;0.40;0.40;;;4.80;99.90;;;;;;5114663;28;20043;-76
2023/01/16 12:57:26;;;;;;;0.00;0.00;;;4.80;99.90;;;;;;5076368;28;20476;-76
2023/01/16 13:00:05;;;;;;;0.00;0.00;;;4.90;99.90;;;;;;5096954;28;20044;-75
2023/01/16 13:03:11;;;;;;;0.00;0.00;;;5.30;99.90;;;;;;5079998;28;20056;-74
2023/01/16 13:05:42;;;;;;;0.00;0.00;;;4.90;99.90;;;;;;5113500;28;20040;-77
2023/01/16 13:08:37;;;;;;;1.88;0.55;;;5.00;99.90;;;;;;5114348;28;20050;-74
2023/01/16 13:14:10;;;;;;;3.85;0.90;;;5.20;99.90;;;;;;5111540;28;20368;-75
2023/01/16 13:16:48;;;;;;;0.00;0.00;;;5.20;99.90;;;;;;5094075;28;20058;-76
2023/01/16 13:19:23;;;;;;;0.00;0.00;;;5.30;99.90;;;;;;5093073;28;20048;-76
2023/01/16 13:21:59;;;;;;;0.00;0.00;;;5.30;99.90;;;;;;5094137;28;20396;-78
2023/01/16 13:24:38;;;;;;;0.00;0.00;;;5.30;99.90;;;;;;5075365;28;20044;-77
2023/01/16 13:27:14;;;;;;;0.10;0.10;;;5.30;99.90;;;;;;5093910;28;20040;-74
2023/01/16 13:29:54;;;;;;;0.00;0.00;;;5.30;99.90;;;;;;5076916;28;20044;-77
2023/01/16 13:32:32;;;;;;;0.00;0.00;;;5.30;99.90;;;;;;5092633;28;20481;-77
2023/01/16 13:35:16;;;;;;;0.77;0.52;;;5.30;99.90;;;;;;5093786;28;20044;-77
2023/01/16 13:37:44;;;;;;;0.00;0.00;;;5.30;99.90;;;;;;5092824;28;20472;-76
2023/01/16 13:40:34;;;;;;;0.00;0.00;;;5.20;99.90;;;;;;5094022;28;20044;-77
2023/01/16 13:45:58;;;;;;;0.00;0.00;;;5.60;99.90;;;;;;5078399;28;20507;-75
2023/01/16 13:48:32;;;;;;;0.68;0.68;;;5.40;99.90;;;;;;5108814;28;20054;-77
2023/01/16 13:51:02;;;;;;;0.00;0.00;;;5.40;99.90;;;;;;5117449;28;20048;-76
2023/01/16 13:53:31;;;;;;;0.63;0.52;;;5.40;99.90;;;;;;5083586;28;20062;-73
2023/01/16 13:56:20;;;;;;;0.00;0.00;;;5.40;99.90;;;;;;5117811;28;20054;-73
2023/01/16 13:59:02;;;;;;;0.00;0.00;;;5.40;99.90;;;;;;5116804;28;20043;-73
2023/01/16 14:01:53;;;;;;;0.98;0.73;;;5.40;99.90;;;;;;5117880;28;20476;-73
2023/01/16 14:04:21;;;;;;;0.00;0.00;;;5.40;99.90;;;;;;5117143;28;20040;-75
2023/01/16 14:09:03;;;;;;;;;;;5.40;99.90;;;;;;5118650;28;20047;-75
2023/01/16 14:10:16;;;;;;;0.00;0.00;;;5.30;99.90;;;;;;5117596;28;19920;-74
2023/01/16 14:13:12;;;;;;;0.00;0.00;;;5.30;99.90;;;;;;5098821;28;20040;-74
2023/01/16 14:19:00;;;;;;;0.00;0.00;;;5.10;99.90;;;;;;5092852;28;20052;-76
2023/01/16 14:21:43;;;;;;;0.00;0.00;;;4.90;99.90;;;;;;5113269;28;20047;-79
2023/01/16 14:24:19;;;;;;;0.00;0.00;;;4.80;99.90;;;;;;5098739;28;20040;-79
2023/01/16 14:26:59;;;;;;;0.00;0.00;;;6.30;99.90;;;;;;5117156;28;20043;-76
2023/01/16 14:29:35;;;;;;;0.03;0.03;;;4.90;99.90;;;;;;5117198;28;20052;-75
2023/01/16 14:32:13;;;;;;;0.00;0.00;;;5.00;99.90;;;;;;5078116;28;20040;-76
2023/01/16 14:34:58;;;;;;;0.00;0.00;;;5.10;99.90;;;;;;5097051;28;20044;-76
2023/01/16 14:37:36;;;;;;;0.00;0.00;;;5.10;99.90;;;;;;5097859;28;20047;-78
2023/01/16 14:40:04;;;;;;;0.00;0.00;;;5.10;99.90;;;;;;5083326;28;20063;-77
2023/01/16 14:57:22;;;;;;;0.00;0.00;;;5.30;99.90;;;;;;5114931;28;20039;-75
2023/01/16 15:00:14;;;;;;;0.00;0.00;;;5.50;99.90;;;;;;5115809;28;20047;-73